Micaville, North Carolina
Current Conditions -  °F | °C
As of 10:15 AM on Saturday 22 Nov 2014 (Local Time) from K0A9 Reporting Station
Clear Clear  
Wind Chill: 43°   Ceiling: Unl
Heat Index: 43°   Visibility: 10mi
Dew Point: 19°   Wind: 3mph
Humidity: 39%   Direction: 100°E
Pressure: 30.42"   Gusts: NA
Location:  35.91°N, 82.21°W
Report Text: K0A9 221515Z AUTO 10003KT 10SM CLR 06/M07 A3042 RMK
Loading
Personal Weather Stations






























Interactive Weather Map New forecast layout! Learn more

10-Day Weather Forecast

Advertisements
Track Severe Weather on mobile